createdAt,value
2022-10-23T00:02:40.680Z,100087.83
2022-10-23T00:05:10.253Z,100081.68
2022-10-23T00:07:55.067Z,100085.84
2022-10-23T00:10:26.056Z,100086.73
2022-10-23T00:12:54.913Z,100089.52
2022-10-23T00:15:37.505Z,100089.89
2022-10-23T00:18:20.034Z,100093.27
2022-10-23T00:20:49.072Z,100096.64
2022-10-23T00:23:18.118Z,100096.10
2022-10-23T00:26:00.825Z,100099.92
2022-10-23T00:28:29.789Z,100103.39
2022-10-23T00:31:03.054Z,100097.08
2022-10-23T00:33:33.385Z,100097.08
2022-10-23T00:36:18.757Z,100100.84
2022-10-23T00:38:49.120Z,100094.16
2022-10-23T00:41:33.382Z,100098.17
2022-10-23T00:47:01.949Z,100100.02
2022-10-23T00:49:44.410Z,100108.83
2022-10-23T00:52:14.914Z,100106.94
2022-10-23T00:54:57.971Z,100105.50
2022-10-23T00:57:45.428Z,100109.89
2022-10-23T01:00:19.284Z,100112.38
2022-10-23T01:02:48.195Z,100107.88
2022-10-23T01:05:18.084Z,100114.42
2022-10-23T01:08:14.447Z,100118.45
2022-10-23T01:11:15.359Z,100120.38
2022-10-23T01:13:57.902Z,100119.11
2022-10-23T01:16:40.468Z,100123.02
2022-10-23T01:19:38.876Z,100116.42
2022-10-23T01:22:59.048Z,100119.91
2022-10-23T01:25:49.755Z,100123.29
2022-10-23T01:28:51.476Z,100120.31
2022-10-23T01:32:03.581Z,100125.70
2022-10-23T01:34:57.986Z,100124.48
2022-10-23T01:37:39.371Z,100127.05
2022-10-23T01:40:31.339Z,100125.17
2022-10-23T01:43:08.124Z,100124.55
2022-10-23T01:45:54.397Z,100127.43
2022-10-23T01:48:31.987Z,100125.09
2022-10-23T01:51:05.224Z,100127.65
2022-10-23T01:53:51.453Z,100132.48
2022-10-23T01:56:38.253Z,100134.31
2022-10-23T01:59:26.155Z,100133.29
2022-10-23T02:02:13.254Z,100127.23
2022-10-23T02:04:56.302Z,100126.02
2022-10-23T02:07:25.585Z,100118.45
2022-10-23T02:09:54.938Z,100123.02
2022-10-23T02:12:48.118Z,100129.58
2022-10-23T02:15:40.794Z,100126.71
2022-10-23T02:18:54.786Z,100134.42
2022-10-23T02:21:50.518Z,100135.52
2022-10-23T02:24:29.495Z,100137.90
2022-10-23T02:27:28.552Z,100133.30
2022-10-23T02:30:06.980Z,100130.48
2022-10-23T02:32:42.671Z,100133.30
2022-10-23T02:35:13.669Z,100128.54
2022-10-23T02:37:42.633Z,100126.94
2022-10-23T02:40:12.434Z,100117.73
2022-10-23T02:43:10.279Z,100126.80
2022-10-23T02:45:54.493Z,100128.38
2022-10-23T02:48:30.741Z,100131.33
2022-10-23T02:51:32.759Z,100140.21
2022-10-23T02:54:07.134Z,100137.28
2022-10-23T02:57:03.571Z,100141.77
2022-10-23T03:00:05.377Z,100137.54
2022-10-23T03:02:44.529Z,100136.88
2022-10-23T03:05:22.036Z,100140.58
2022-10-23T03:07:51.347Z,100136.98
2022-10-23T03:10:34.732Z,100133.53
2022-10-23T03:13:04.330Z,100137.89
2022-10-23T03:15:39.346Z,100142.98
2022-10-23T03:18:21.826Z,100148.89
2022-10-23T03:21:05.826Z,100148.39
2022-10-23T03:23:35.844Z,100153.33
2022-10-23T03:26:05.178Z,100147.56
2022-10-23T03:28:44.315Z,100146.16
2022-10-23T03:31:26.805Z,100146.80
2022-10-23T03:33:59.746Z,100150.94
2022-10-23T03:36:42.385Z,100157.05
2022-10-23T03:39:12.516Z,100164.45
2022-10-23T03:41:42.225Z,100167.02
2022-10-23T03:44:11.017Z,100177.05
2022-10-23T03:46:59.473Z,100177.23
2022-10-23T03:49:29.284Z,100180.54
2022-10-23T03:52:05.954Z,100181.66
2022-10-23T03:54:48.800Z,100176.08
2022-10-23T03:57:32.929Z,100175.53
2022-10-23T04:00:15.797Z,100173.34
2022-10-23T04:02:49.165Z,100174.52
2022-10-23T04:05:31.774Z,100174.22
2022-10-23T04:08:01.201Z,100184.90
2022-10-23T04:10:30.165Z,100186.26
2022-10-23T04:12:59.664Z,100187.42
2022-10-23T04:15:52.892Z,100182.42
2022-10-23T04:18:35.279Z,100185.08
2022-10-23T04:21:04.364Z,100188.23
2022-10-23T04:23:48.419Z,100190.48
2022-10-23T04:26:19.885Z,100187.98
2022-10-23T04:28:50.016Z,100184.48
2022-10-23T04:31:32.642Z,100188.82
2022-10-23T04:34:15.240Z,100184.85
2022-10-23T04:36:58.500Z,100179.70
2022-10-23T04:39:27.799Z,100188.17
2022-10-23T04:42:10.352Z,100191.60
2022-10-23T04:44:40.018Z,100189.62
2022-10-23T04:47:09.821Z,100188.76
2022-10-23T04:50:02.672Z,100190.91
2022-10-23T04:52:58.304Z,100196.87
2022-10-23T04:55:53.575Z,100202.10
2022-10-23T04:58:32.728Z,100200.50
2022-10-23T05:01:15.877Z,100204.57
2022-10-23T05:03:58.505Z,100206.10
2022-10-23T05:06:41.038Z,100201.64
2022-10-23T05:09:28.626Z,100196.27
2022-10-23T05:12:07.878Z,100199.55
2022-10-23T05:14:37.853Z,100201.06
2022-10-23T05:17:40.853Z,100195.69
2022-10-23T05:20:15.642Z,100197.19
2022-10-23T05:23:01.071Z,100193.80
2022-10-23T05:25:43.862Z,100188.95
2022-10-23T05:28:19.005Z,100196.05
2022-10-23T05:31:05.619Z,100198.99
2022-10-23T05:33:36.692Z,100205.30
2022-10-23T05:36:19.330Z,100205.52
2022-10-23T05:39:03.020Z,100203.88
2022-10-23T05:41:32.312Z,100204.83
2022-10-23T05:44:01.636Z,100202.98
2022-10-23T05:46:50.055Z,100205.22
2022-10-23T05:49:41.883Z,100202.40
2022-10-23T05:52:47.695Z,100201.55
2022-10-23T05:55:35.390Z,100201.71
2022-10-23T05:58:27.508Z,100197.54
2022-10-23T06:01:15.884Z,100191.84
2022-10-23T06:04:02.152Z,100195.37
2022-10-23T06:06:57.156Z,100196.85
2022-10-23T06:09:40.209Z,100197.94
2022-10-23T06:12:09.652Z,100194.09
2022-10-23T06:14:52.104Z,100198.25
2022-10-23T06:17:22.208Z,100196.62
2022-10-23T06:19:51.089Z,100198.00
2022-10-23T06:24:53.145Z,100198.84
2022-10-23T06:27:40.103Z,100200.27
2022-10-23T06:30:11.029Z,100202.42
2022-10-23T06:32:40.981Z,100202.03
2022-10-23T06:35:14.173Z,100205.24
2022-10-23T06:37:43.271Z,100207.50
2022-10-23T06:40:32.402Z,100210.38
2022-10-23T06:43:05.347Z,100214.48
2022-10-23T06:45:53.322Z,100216.29
2022-10-23T06:48:45.550Z,100216.13
2022-10-23T06:51:34.757Z,100211.46
2022-10-23T06:54:04.234Z,100209.44
2022-10-23T06:56:51.901Z,100204.60
2022-10-23T06:59:37.902Z,100211.55
2022-10-23T07:02:21.366Z,100214.23
2022-10-23T07:05:08.734Z,100219.73
2022-10-23T07:07:40.888Z,100218.39
2022-10-23T07:10:11.460Z,100224.04
2022-10-23T07:12:45.815Z,100217.42
2022-10-23T07:15:33.926Z,100224.46
2022-10-23T07:18:17.737Z,100220.67
2022-10-23T07:21:07.265Z,100217.07
2022-10-23T07:23:36.617Z,100211.81
2022-10-23T07:26:14.666Z,100206.23
2022-10-23T07:28:57.315Z,100207.50
2022-10-23T07:31:28.379Z,100207.64
2022-10-23T07:34:16.213Z,100214.05
2022-10-23T07:36:45.728Z,100216.55
2022-10-23T07:39:15.085Z,100209.86
2022-10-23T07:41:50.634Z,100208.34
2022-10-23T07:44:33.738Z,100209.48
2022-10-23T07:47:16.918Z,100207.56
2022-10-23T07:49:48.749Z,100215.36
2022-10-23T07:52:18.266Z,100216.94
2022-10-23T07:55:10.821Z,100215.85
2022-10-23T07:57:44.883Z,100214.45
2022-10-23T08:00:41.636Z,100215.47
2022-10-23T08:03:15.290Z,100215.75
2022-10-23T08:05:44.668Z,100219.23
2022-10-23T08:08:13.864Z,100224.09
2022-10-23T08:10:46.024Z,100224.48
2022-10-23T08:13:20.633Z,100225.48
2022-10-23T08:15:56.126Z,100221.07
2022-10-23T08:18:45.673Z,100224.43
2022-10-23T08:21:14.943Z,100221.44
2022-10-23T08:23:59.846Z,100228.48
2022-10-23T08:26:29.749Z,100238.91
2022-10-23T08:29:12.766Z,100239.63
2022-10-23T08:31:42.900Z,100234.77
2022-10-23T08:34:31.973Z,100235.31
2022-10-23T08:37:15.632Z,100239.75
2022-10-23T08:39:44.476Z,100235.84
2022-10-23T08:42:24.007Z,100232.01
2022-10-23T08:45:17.615Z,100238.70
2022-10-23T08:47:51.063Z,100238.44
2022-10-23T08:51:07.641Z,100240.11
2022-10-23T08:54:17.099Z,100242.39
2022-10-23T08:56:59.561Z,100246.89
2022-10-23T09:00:09.346Z,100248.97
2022-10-23T09:02:46.445Z,100246.94
2022-10-23T09:05:34.063Z,100245.92
2022-10-23T09:08:50.046Z,100248.65
2022-10-23T09:11:54.809Z,100255.11
2022-10-23T09:14:54.981Z,100255.80
2022-10-23T09:17:41.936Z,100264.96
2022-10-23T09:20:34.384Z,100265.27
2022-10-23T09:23:24.487Z,100264.27
2022-10-23T09:25:57.554Z,100270.15
2022-10-23T09:28:52.803Z,100272.13
2022-10-23T09:31:35.182Z,100277.52
2022-10-23T09:34:08.492Z,100280.23
2022-10-23T09:36:50.369Z,100281.46
2022-10-23T09:39:26.595Z,100277.41
2022-10-23T09:42:28.109Z,100280.52
2022-10-23T09:45:33.207Z,100283.40
2022-10-23T09:48:19.398Z,100279.48
2022-10-23T09:51:05.325Z,100275.59
2022-10-23T09:53:39.821Z,100280.08
2022-10-23T09:56:33.721Z,100274.52
2022-10-23T09:59:23.166Z,100272.20
2022-10-23T10:01:58.327Z,100275.06
2022-10-23T10:04:47.753Z,100273.03
2022-10-23T10:07:33.400Z,100267.36
2022-10-23T10:10:11.162Z,100268.77
2022-10-23T10:12:59.394Z,100271.74
2022-10-23T10:15:38.118Z,100261.44
2022-10-23T10:18:18.232Z,100258.34
2022-10-23T10:21:29.144Z,100251.55
2022-10-23T10:24:00.943Z,100248.28
2022-10-23T10:26:52.433Z,100258.80
2022-10-23T10:29:39.146Z,100257.92
2022-10-23T10:32:54.643Z,100260.77
2022-10-23T10:35:45.433Z,100263.23
2022-10-23T10:38:35.920Z,100262.31
2022-10-23T10:41:40.514Z,100259.23
2022-10-23T10:44:35.670Z,100260.61
2022-10-23T10:47:27.391Z,100262.17
2022-10-23T10:49:59.825Z,100257.41
2022-10-23T10:53:26.664Z,100257.64
2022-10-23T10:55:58.605Z,100263.18
2022-10-23T10:58:47.658Z,100257.62
2022-10-23T11:02:04.274Z,100258.93
2022-10-23T11:05:11.774Z,100256.27
2022-10-23T11:07:56.382Z,100260.26
2022-10-23T11:10:42.582Z,100264.01
2022-10-23T11:13:37.782Z,100261.89
2022-10-23T11:16:23.946Z,100258.96
2022-10-23T11:19:20.631Z,100256.37
2022-10-23T11:21:57.201Z,100263.10
2022-10-23T11:24:50.058Z,100267.88
2022-10-23T11:27:43.891Z,100263.34
2022-10-23T11:30:18.142Z,100262.87
2022-10-23T11:33:22.680Z,100256.76
2022-10-23T11:36:01.548Z,100258.52
2022-10-23T11:38:35.596Z,100265.73
2022-10-23T11:41:26.373Z,100265.08
2022-10-23T11:44:06.285Z,100266.59
2022-10-23T11:47:01.670Z,100264.04
2022-10-23T11:49:44.195Z,100264.36
2022-10-23T11:52:25.857Z,100265.95
2022-10-23T11:55:03.869Z,100262.66
2022-10-23T11:57:32.751Z,100263.70
2022-10-23T12:00:01.971Z,100263.64
2022-10-23T12:02:43.968Z,100261.96
2022-10-23T12:05:38.098Z,100260.34
2022-10-23T12:08:21.303Z,100262.50
2022-10-23T12:11:03.781Z,100260.26
2022-10-23T12:13:46.749Z,100259.73
2022-10-23T12:16:16.088Z,100256.59
2022-10-23T12:18:50.367Z,100254.34
2022-10-23T12:21:28.659Z,100255.66
2022-10-23T12:24:11.151Z,100254.84
2022-10-23T12:26:52.729Z,100254.75
2022-10-23T12:29:49.979Z,100255.36
2022-10-23T12:32:19.235Z,100257.95
2022-10-23T12:35:29.891Z,100255.65
2022-10-23T12:38:10.972Z,100250.27
2022-10-23T12:40:40.403Z,100248.89
2022-10-23T12:43:36.630Z,100246.95
2022-10-23T12:46:29.904Z,100247.09
2022-10-23T12:49:00.918Z,100247.95
2022-10-23T12:51:43.950Z,100248.56
2022-10-23T12:54:27.258Z,100248.98
2022-10-23T12:56:56.450Z,100251.42
2022-10-23T12:59:42.044Z,100249.09
2022-10-23T13:02:27.372Z,100249.70
2022-10-23T13:05:00.313Z,100248.11
2022-10-23T13:07:35.845Z,100250.17
2022-10-23T13:10:06.643Z,100251.96
2022-10-23T13:12:40.716Z,100252.16
2022-10-23T13:15:24.317Z,100250.52
2022-10-23T13:18:08.303Z,100252.44
2022-10-23T13:20:42.089Z,100251.48
2022-10-23T13:23:19.591Z,100252.45
2022-10-23T13:26:07.460Z,100256.42
2022-10-23T13:28:51.059Z,100254.45
2022-10-23T13:31:27.659Z,100252.70
2022-10-23T13:33:59.822Z,100252.04
2022-10-23T13:36:53.704Z,100251.88
2022-10-23T13:39:36.303Z,100250.06
2022-10-23T13:42:14.484Z,100250.91
2022-10-23T13:44:43.720Z,100252.09
2022-10-23T13:47:15.034Z,100249.14
2022-10-23T13:49:57.486Z,100249.83
2022-10-23T13:52:39.900Z,100251.16
2022-10-23T13:55:28.492Z,100249.65
2022-10-23T13:57:57.457Z,100254.85
2022-10-23T14:00:41.289Z,100249.52
2022-10-23T14:03:24.949Z,100251.60
2022-10-23T14:06:07.542Z,100246.20
2022-10-23T14:08:50.431Z,100245.27
2022-10-23T14:11:34.044Z,100242.55
2022-10-23T14:14:03.065Z,100241.41
2022-10-23T14:16:32.276Z,100242.65
2022-10-23T14:19:01.327Z,100239.59
2022-10-23T14:21:43.805Z,100237.48
2022-10-23T14:24:26.470Z,100243.50
2022-10-23T14:27:08.994Z,100241.81
2022-10-23T14:29:38.214Z,100241.80
2022-10-23T14:32:07.323Z,100239.60
2022-10-23T14:34:53.905Z,100237.53
2022-10-23T14:37:36.602Z,100234.35
2022-10-23T14:40:06.378Z,100234.25
2022-10-23T14:42:35.449Z,100238.80
2022-10-23T14:45:18.003Z,100240.75
2022-10-23T14:48:03.462Z,100242.40
2022-10-23T14:50:49.331Z,100238.40
2022-10-23T14:53:32.207Z,100236.26
2022-10-23T14:56:15.617Z,100231.30
2022-10-23T14:58:44.552Z,100223.11
2022-10-23T15:01:27.107Z,100222.98
2022-10-23T15:03:57.102Z,100221.65
2022-10-23T15:06:40.301Z,100215.23
2022-10-23T15:09:09.215Z,100216.30
2022-10-23T15:11:38.393Z,100215.57
2022-10-23T15:14:07.360Z,100213.11
2022-10-23T15:16:41.840Z,100216.09
2022-10-23T15:19:24.616Z,100211.49
2022-10-23T15:22:07.319Z,100214.65
2022-10-23T15:24:36.277Z,100220.08
2022-10-23T15:27:19.840Z,100219.08
2022-10-23T15:30:02.378Z,100218.37
2022-10-23T15:32:31.976Z,100219.09
2022-10-23T15:35:01.159Z,100224.20
2022-10-23T15:37:29.784Z,100227.64
2022-10-23T15:40:12.967Z,100226.91
2022-10-23T15:42:41.889Z,100219.60
2022-10-23T15:45:13.541Z,100216.42
2022-10-23T15:47:42.829Z,100207.42
2022-10-23T15:50:12.146Z,100214.89
2022-10-23T15:56:22.268Z,100215.39
2022-10-23T15:59:04.650Z,100217.45
2022-10-23T16:01:33.993Z,100221.26
2022-10-23T16:04:17.455Z,100227.22
2022-10-23T16:06:46.624Z,100226.53
2022-10-23T16:09:30.050Z,100226.35
2022-10-23T16:11:59.029Z,100229.29
2022-10-23T16:14:28.404Z,100229.26
2022-10-23T16:16:57.457Z,100224.75
2022-10-23T16:19:41.078Z,100229.52
2022-10-23T16:22:10.410Z,100232.33
2022-10-23T16:24:39.599Z,100234.98
2022-10-23T16:27:08.601Z,100241.19
2022-10-23T16:29:51.065Z,100242.73
2022-10-23T16:32:20.102Z,100246.14
2022-10-23T16:35:02.546Z,100247.94
2022-10-23T16:37:41.422Z,100247.36
2022-10-23T16:40:16.650Z,100247.95
2022-10-23T16:43:04.320Z,100249.27
2022-10-23T16:45:38.296Z,100244.60
2022-10-23T16:48:20.580Z,100240.58
2022-10-23T16:50:49.496Z,100238.08
2022-10-23T16:53:18.224Z,100236.27
2022-10-23T16:55:47.133Z,100236.77
2022-10-23T16:58:15.992Z,100239.15
2022-10-23T17:00:45.177Z,100236.58
2022-10-23T17:03:29.159Z,100233.56
2022-10-23T17:06:05.027Z,100235.52
2022-10-23T17:08:36.586Z,100234.96
2022-10-23T17:11:19.287Z,100236.05
2022-10-23T17:13:58.605Z,100238.05
2022-10-23T17:16:46.541Z,100237.27
2022-10-23T17:19:39.670Z,100241.48
2022-10-23T17:22:11.269Z,100242.40
2022-10-23T17:24:41.643Z,100238.45
2022-10-23T17:27:10.497Z,100236.98
2022-10-23T17:29:39.511Z,100241.17
2022-10-23T17:32:08.514Z,100248.40
2022-10-23T17:34:38.203Z,100251.42
2022-10-23T17:37:08.219Z,100248.98
2022-10-23T17:39:50.548Z,100247.05
2022-10-23T17:42:19.514Z,100248.24
2022-10-23T17:44:48.231Z,100249.27
2022-10-23T17:47:17.183Z,100248.64
2022-10-23T17:49:46.296Z,100247.29
2022-10-23T17:52:18.089Z,100246.62
2022-10-23T17:54:52.716Z,100247.99
2022-10-23T17:59:50.527Z,100251.75
2022-10-23T18:02:19.316Z,100248.27
2022-10-23T18:04:47.887Z,100246.70
2022-10-23T18:07:30.608Z,100249.98
2022-10-23T18:10:02.760Z,100248.26
2022-10-23T18:12:32.977Z,100251.40
2022-10-23T18:15:01.817Z,100245.45
2022-10-23T18:17:30.769Z,100242.22
2022-10-23T18:20:01.987Z,100244.77
2022-10-23T18:22:33.506Z,100243.44
2022-10-23T18:25:04.277Z,100239.61
2022-10-23T18:27:33.488Z,100239.59
2022-10-23T18:30:02.823Z,100241.92
2022-10-23T18:32:32.938Z,100243.55
2022-10-23T18:35:01.922Z,100242.30
2022-10-23T18:37:33.860Z,100238.54
2022-10-23T18:40:04.923Z,100236.98
2022-10-23T18:42:35.145Z,100236.27
2022-10-23T18:45:05.147Z,100237.43
2022-10-23T18:47:34.329Z,100245.94
2022-10-23T18:50:03.576Z,100246.05
2022-10-23T18:52:32.078Z,100248.10
2022-10-23T18:55:00.780Z,100249.85
2022-10-23T18:57:29.759Z,100247.38
2022-10-23T18:59:58.926Z,100243.60
2022-10-23T19:02:41.391Z,100241.86
2022-10-23T19:05:10.375Z,100244.68
2022-10-23T19:07:44.488Z,100244.14
2022-10-23T19:10:18.450Z,100243.83
2022-10-23T19:13:01.167Z,100237.02
2022-10-23T19:15:44.613Z,100240.65
2022-10-23T19:18:13.226Z,100238.63
2022-10-23T19:20:43.529Z,100236.15
2022-10-23T19:23:15.249Z,100238.84
2022-10-23T19:25:45.859Z,100236.02
2022-10-23T19:28:15.075Z,100230.67
2022-10-23T19:30:57.391Z,100225.98
2022-10-23T19:33:39.798Z,100220.89
2022-10-23T19:36:12.617Z,100222.74
2022-10-23T19:38:56.458Z,100224.27
2022-10-23T19:41:24.858Z,100225.67
2022-10-23T19:44:03.399Z,100222.23
2022-10-23T19:46:44.917Z,100215.66
2022-10-23T19:49:14.517Z,100214.02
2022-10-23T19:51:51.183Z,100208.36
2022-10-23T19:54:21.910Z,100206.90
2022-10-23T19:57:04.800Z,100206.55
2022-10-23T19:59:33.599Z,100208.50
2022-10-23T20:02:02.753Z,100209.86
2022-10-23T20:04:31.483Z,100206.00
2022-10-23T20:07:00.126Z,100200.01
2022-10-23T20:09:28.782Z,100198.72
2022-10-23T20:11:57.445Z,100192.16
2022-10-23T20:14:26.048Z,100195.92
2022-10-23T20:16:55.981Z,100194.98
2022-10-23T20:19:25.099Z,100195.35
2022-10-23T20:21:53.936Z,100192.58
2022-10-23T20:24:22.712Z,100184.17
2022-10-23T20:26:54.849Z,100188.05
2022-10-23T20:29:26.856Z,100183.44
2022-10-23T20:31:56.017Z,100186.35
2022-10-23T20:34:40.217Z,100186.03
2022-10-23T20:37:08.952Z,100185.02
2022-10-23T20:39:39.414Z,100179.92
2022-10-23T20:42:12.054Z,100180.44
2022-10-23T20:44:43.049Z,100178.20
2022-10-23T20:47:11.764Z,100172.05
2022-10-23T20:49:40.424Z,100170.40
2022-10-23T20:52:09.132Z,100176.27
2022-10-23T20:54:38.582Z,100182.44
2022-10-23T20:57:07.637Z,100178.33
2022-10-23T20:59:36.492Z,100179.59
2022-10-23T21:02:18.777Z,100182.25
2022-10-23T21:04:48.204Z,100181.38
2022-10-23T21:07:18.627Z,100183.02
2022-10-23T21:09:47.459Z,100183.55
2022-10-23T21:12:16.163Z,100187.27
2022-10-23T21:14:58.825Z,100189.40
2022-10-23T21:17:27.875Z,100188.72
2022-10-23T21:19:57.171Z,100188.89
2022-10-23T21:22:39.584Z,100185.77
2022-10-23T21:25:22.228Z,100188.33
2022-10-23T21:27:55.938Z,100187.64
2022-10-23T21:30:26.013Z,100184.15
2022-10-23T21:32:54.586Z,100178.35
2022-10-23T21:38:54.021Z,100181.77
2022-10-23T21:41:36.381Z,100185.48
2022-10-23T21:44:06.392Z,100185.03
2022-10-23T21:46:35.990Z,100180.86
2022-10-23T21:49:18.327Z,100175.32
2022-10-23T21:51:48.195Z,100172.23
2022-10-23T21:54:17.239Z,100169.90
2022-10-23T21:56:52.080Z,100165.40
2022-10-23T21:59:25.769Z,100165.20
2022-10-23T22:01:57.253Z,100169.43
2022-10-23T22:04:26.737Z,100174.30
2022-10-23T22:06:55.632Z,100175.06
2022-10-23T22:09:25.163Z,100172.90
2022-10-23T22:11:54.842Z,100171.20
2022-10-23T22:14:39.416Z,100167.15
2022-10-23T22:17:08.418Z,100164.30
2022-10-23T22:19:50.915Z,100157.27
2022-10-23T22:22:19.636Z,100151.44
2022-10-23T22:24:48.703Z,100153.27
2022-10-23T22:27:31.259Z,100152.43
2022-10-23T22:30:03.907Z,100154.49
2022-10-23T22:32:32.818Z,100156.29
2022-10-23T22:35:01.561Z,100157.67
2022-10-23T22:37:30.083Z,100158.14
2022-10-23T22:40:13.360Z,100151.84
2022-10-23T22:42:42.240Z,100147.95
2022-10-23T22:45:12.008Z,100145.50
2022-10-23T22:47:40.823Z,100150.58
2022-10-23T22:50:10.974Z,100152.05
2022-10-23T22:52:40.103Z,100147.23
2022-10-23T22:55:22.425Z,100145.44
2022-10-23T22:58:04.817Z,100143.23
2022-10-23T23:00:48.357Z,100151.77
2022-10-23T23:03:30.955Z,100157.11
2022-10-23T23:06:15.175Z,100160.10
2022-10-23T23:08:45.103Z,100169.91
2022-10-23T23:11:16.105Z,100173.67
2022-10-23T23:13:58.558Z,100171.56
2022-10-23T23:16:30.973Z,100168.10
2022-10-23T23:19:13.585Z,100152.83
2022-10-23T23:21:42.564Z,100142.80
2022-10-23T23:24:12.253Z,100137.50
2022-10-23T23:26:41.103Z,100141.04
2022-10-23T23:29:10.089Z,100142.65
2022-10-23T23:31:39.562Z,100143.28
2022-10-23T23:34:22.179Z,100138.91
2022-10-23T23:36:51.693Z,100141.91
2022-10-23T23:39:34.529Z,100142.86
2022-10-23T23:42:03.450Z,100143.71
2022-10-23T23:44:55.882Z,100148.11
2022-10-23T23:47:31.849Z,100151.51
2022-10-23T23:50:00.737Z,100148.11
2022-10-23T23:52:29.586Z,100146.99
2022-10-23T23:54:58.511Z,100147.55
2022-10-23T23:57:41.018Z,100143.30
